Time;durP1;ratioP1;P1;durP2;ratioP2;P2;SDS_P1;SDS_P2;PMS_P1;PMS_P2;Temp;Humidity;BMP_temperature;BMP_pressure;BME280_temperature;BME280_humidity;BME280_pressure;Samples;Min_cycle;Max_cycle;Signal;HPM_P1;HPM_P2
2023/07/04 00:00:14;;;;;;;7.53;2.10;;;13.80;99.90;;;13.34;100.00;101284.50;4169525;28;20030;-74
2023/07/04 00:02:15;;;;;;;9.48;2.90;;;13.90;99.90;;;13.40;100.00;101279.41;4169812;28;20030;-74
2023/07/04 00:04:21;;;;;;;6.20;2.20;;;14.00;99.90;;;13.55;100.00;101277.78;4169414;28;20052;-74
2023/07/04 00:06:28;;;;;;;10.68;2.90;;;14.00;99.90;;;13.65;100.00;101269.69;4169486;28;20192;-74
2023/07/04 00:08:33;;;;;;;9.18;3.08;;;14.20;99.90;;;13.80;100.00;101270.69;4170140;28;20523;-74
2023/07/04 00:10:37;;;;;;;15.88;4.45;;;14.30;99.90;;;13.99;100.00;101280.16;4187255;28;20033;-74
2023/07/04 00:12:38;;;;;;;11.05;3.10;;;14.50;99.90;;;14.04;100.00;101270.69;4169589;28;20541;-74
2023/07/04 00:14:39;;;;;;;11.52;3.15;;;14.60;99.90;;;14.15;100.00;101269.56;4169252;28;20041;-75
2023/07/04 00:16:40;;;;;;;11.15;3.53;;;14.70;99.90;;;14.20;100.00;101265.41;4169518;28;20034;-75
2023/07/04 00:18:41;;;;;;;12.95;2.85;;;14.70;99.90;;;14.31;100.00;101264.22;4153010;28;20041;-75
2023/07/04 00:20:42;;;;;;;9.15;3.00;;;14.80;99.90;;;14.37;100.00;101263.59;4186781;28;20092;-74
2023/07/04 00:22:44;;;;;;;10.68;3.10;;;14.90;99.90;;;14.42;100.00;101263.09;4186917;28;20025;-74
2023/07/04 00:24:44;;;;;;;13.80;3.70;;;14.90;99.90;;;14.41;100.00;101246.34;4186941;28;20104;-74
2023/07/04 00:26:45;;;;;;;11.93;3.00;;;15.00;99.90;;;14.50;100.00;101253.28;4169193;28;20029;-75
2023/07/04 00:28:47;;;;;;;9.77;3.08;;;15.00;99.90;;;14.58;100.00;101260.41;4186779;28;20087;-74
2023/07/04 00:30:51;;;;;;;10.90;2.97;;;15.10;99.90;;;14.56;100.00;101238.50;4169453;28;20080;-74
2023/07/04 00:32:52;;;;;;;9.85;2.88;;;15.10;99.90;;;14.67;100.00;101254.91;4168517;28;20104;-74
2023/07/04 00:34:53;;;;;;;9.35;2.88;;;15.20;99.90;;;14.67;100.00;101238.16;4186879;28;20021;-74
2023/07/04 00:36:54;;;;;;;8.05;3.72;;;15.20;99.90;;;14.63;100.00;101231.53;4169110;28;20036;-74
2023/07/04 00:38:56;;;;;;;9.30;2.50;;;15.20;99.90;;;14.67;100.00;101248.75;4186929;28;20025;-74
2023/07/04 00:40:57;;;;;;;9.75;2.83;;;15.20;99.90;;;14.67;100.00;101264.69;4186642;28;20025;-74
2023/07/04 00:43:03;;;;;;;7.45;2.30;;;15.20;99.90;;;14.62;100.00;101262.56;4185341;28;20032;-74
2023/07/04 00:45:19;;;;;;;6.07;2.85;;;15.20;99.90;;;14.66;100.00;101255.09;4169794;28;20064;-74
2023/07/04 00:47:32;;;;;;;12.85;3.60;;;15.20;99.90;;;14.62;100.00;101253.75;4186643;28;20036;-74
2023/07/04 00:49:42;;;;;;;13.55;3.60;;;15.20;99.90;;;14.60;100.00;101258.44;4170513;28;20025;-74
2023/07/04 00:51:45;;;;;;;9.55;2.40;;;15.20;99.90;;;14.66;100.00;101257.75;4169600;28;20044;-74
2023/07/04 00:53:49;;;;;;;12.02;3.00;;;15.20;99.90;;;14.68;100.00;101250.44;4169193;28;20032;-74
2023/07/04 00:55:51;;;;;;;8.88;2.63;;;15.20;99.90;;;14.67;100.00;101248.75;4168931;28;20029;-74
2023/07/04 00:57:52;;;;;;;8.15;2.65;;;15.20;99.90;;;14.68;100.00;101245.94;4168593;28;20036;-75
2023/07/04 00:59:58;;;;;;;8.00;2.08;;;15.20;99.90;;;14.67;100.00;101241.63;4185229;28;20119;-74
2023/07/04 01:01:59;;;;;;;11.13;2.72;;;15.30;99.90;;;14.70;100.00;101245.75;4169033;28;20096;-74
2023/07/04 01:04:03;;;;;;;9.60;2.50;;;15.30;99.90;;;14.72;100.00;101243.78;4186332;28;20029;-74
2023/07/04 01:06:32;;;;;;;9.98;2.33;;;15.30;99.90;;;14.74;100.00;101239.13;4168926;28;20041;-74
2023/07/04 01:08:43;;;;;;;8.60;2.38;;;15.30;99.90;;;14.74;100.00;101239.13;4170224;28;20026;-75
2023/07/04 01:10:46;;;;;;;8.07;2.38;;;15.30;99.90;;;14.75;100.00;101240.78;4168611;28;20028;-74
2023/07/04 01:12:48;;;;;;;9.07;3.00;;;15.30;99.90;;;14.71;100.00;101229.69;4168927;28;20036;-74
2023/07/04 01:14:49;;;;;;;4.20;2.08;;;15.30;99.90;;;14.72;100.00;101228.69;4185862;28;20033;-75
2023/07/04 01:16:51;;;;;;;12.02;2.90;;;15.30;99.90;;;14.75;100.00;101230.16;4186127;28;20029;-74
2023/07/04 01:18:56;;;;;;;10.82;2.40;;;15.30;99.90;;;14.72;100.00;101241.97;4168246;28;20021;-74
2023/07/04 01:20:59;;;;;;;6.20;2.13;;;15.30;99.90;;;14.72;100.00;101251.75;4168139;28;20103;-74
2023/07/04 01:23:22;;;;;;;5.25;1.95;;;15.30;99.90;;;14.67;100.00;101241.63;4168418;28;20576;-75
2023/07/04 01:25:51;;;;;;;8.10;2.60;;;15.20;99.90;;;14.65;100.00;101240.16;4153432;28;20049;-74
2023/07/04 01:27:59;;;;;;;9.18;2.22;;;15.20;99.90;;;14.62;100.00;101236.00;4168117;28;20026;-74
2023/07/04 01:30:04;;;;;;;9.82;2.63;;;15.20;99.90;;;14.60;100.00;101234.53;4152586;28;20113;-74
2023/07/04 01:32:08;;;;;;;10.45;2.70;;;15.10;99.90;;;14.59;100.00;101222.25;4168922;28;20075;-74
2023/07/04 01:34:09;;;;;;;7.93;2.77;;;15.20;99.90;;;14.61;100.00;101229.03;4168719;28;20056;-74
2023/07/04 01:36:11;;;;;;;7.32;2.70;;;15.20;99.90;;;14.68;100.00;101231.84;4168344;28;21171;-74
2023/07/04 01:38:12;;;;;;;8.90;3.08;;;15.20;99.90;;;14.69;100.00;101222.88;4151812;28;20126;-74
2023/07/04 01:40:13;;;;;;;7.68;2.17;;;15.30;99.90;;;14.69;100.00;101230.84;4168213;28;20033;-74
2023/07/04 01:42:14;;;;;;;5.13;2.17;;;15.20;99.90;;;14.70;100.00;101227.19;4185749;28;20021;-74
2023/07/04 01:44:16;;;;;;;8.55;3.22;;;15.20;99.90;;;14.66;100.00;101223.22;4184024;28;20031;-74
2023/07/04 01:46:18;;;;;;;7.53;2.50;;;15.30;99.90;;;14.70;100.00;101225.34;4167840;28;20072;-74
2023/07/04 01:48:19;;;;;;;10.20;2.65;;;15.20;99.90;;;14.72;100.00;101211.94;4167914;28;20524;-74
2023/07/04 01:50:20;;;;;;;5.63;2.17;;;15.30;99.90;;;14.77;100.00;101217.53;4168251;28;20022;-75
2023/07/04 01:52:22;;;;;;;11.43;3.20;;;15.30;99.90;;;14.77;100.00;101217.53;4167993;28;20159;-74
2023/07/04 01:54:23;;;;;;;10.77;3.10;;;15.30;99.90;;;14.78;100.00;101217.34;4167883;28;20029;-74
2023/07/04 01:56:24;;;;;;;8.55;2.33;;;15.30;99.90;;;14.79;100.00;101224.34;4167819;28;20037;-74
2023/07/04 01:58:25;;;;;;;12.13;2.65;;;15.40;99.90;;;14.81;100.00;101219.66;4185348;28;20029;-74
2023/07/04 02:00:26;;;;;;;7.57;2.20;;;15.30;99.90;;;14.83;100.00;101216.84;4185503;28;20040;-74
2023/07/04 02:02:27;;;;;;;11.43;2.55;;;15.40;99.90;;;14.82;100.00;101212.53;4167581;28;20072;-74
2023/07/04 02:04:28;;;;;;;11.73;2.55;;;15.40;99.90;;;14.82;100.00;101213.38;4200950;28;20028;-74
2023/07/04 02:06:29;;;;;;;9.70;2.63;;;15.40;99.90;;;14.84;100.00;101211.34;4167986;28;20105;-74
2023/07/04 02:08:29;;;;;;;16.48;2.88;;;15.40;99.90;;;14.82;100.00;101205.41;4185485;28;20029;-74
2023/07/04 02:10:30;;;;;;;11.75;2.78;;;15.40;99.90;;;14.77;100.00;101196.28;4185329;28;20484;-74
2023/07/04 02:12:31;;;;;;;5.20;2.38;;;15.40;99.90;;;14.81;100.00;101195.75;4167798;28;20033;-74
2023/07/04 02:14:32;;;;;;;6.65;2.03;;;15.40;99.90;;;14.82;100.00;101194.78;4167534;28;20037;-75
2023/07/04 02:16:33;;;;;;;6.55;2.30;;;15.40;99.90;;;14.85;100.00;101199.75;4167605;28;20040;-75
2023/07/04 02:18:34;;;;;;;6.97;2.47;;;15.40;99.90;;;14.81;100.00;101181.69;4167728;28;20068;-75
2023/07/04 02:20:35;;;;;;;12.18;3.15;;;15.40;99.90;;;14.87;100.00;101179.13;4167550;28;20088;-75
2023/07/04 02:22:40;;;;;;;7.75;2.55;;;15.40;99.90;;;14.87;100.00;101181.00;4167560;28;20030;-75
2023/07/04 02:24:40;;;;;;;8.23;2.65;;;15.50;99.90;;;14.90;100.00;101191.28;4167779;28;20056;-75
2023/07/04 02:26:42;;;;;;;5.40;1.80;;;15.40;99.90;;;14.87;100.00;101187.09;4185113;28;20017;-74
2023/07/04 02:28:43;;;;;;;4.90;2.10;;;15.40;99.90;;;14.86;100.00;101182.81;4184957;28;20037;-75
2023/07/04 02:30:55;;;;;;;6.47;2.50;;;15.40;99.90;;;14.87;100.00;101175.69;4167736;28;20022;-74
2023/07/04 02:32:55;;;;;;;10.10;2.88;;;15.40;99.90;;;14.84;100.00;101170.72;4185179;28;20033;-74
2023/07/04 02:34:56;;;;;;;11.48;2.83;;;15.40;99.90;;;14.70;100.00;101148.34;4183732;28;20048;-75
2023/07/04 02:36:57;;;;;;;6.00;2.13;;;15.40;99.90;;;14.85;100.00;101180.31;4150973;28;20072;-75
2023/07/04 02:38:58;;;;;;;6.88;2.17;;;15.40;99.90;;;14.82;100.00;101178.84;4183991;28;20110;-74
2023/07/04 02:40:59;;;;;;;11.55;2.70;;;15.40;99.90;;;14.81;100.00;101179.03;4185019;28;20504;-74
2023/07/04 02:43:00;;;;;;;8.05;2.30;;;15.30;99.90;;;14.76;100.00;101171.56;4184758;28;20029;-74
2023/07/04 02:45:01;;;;;;;10.57;2.33;;;15.30;99.90;;;14.69;100.00;101164.47;4185148;28;20075;-74
2023/07/04 02:47:02;;;;;;;12.45;2.88;;;15.30;99.90;;;14.72;100.00;101164.13;4185288;28;20036;-75
2023/07/04 02:49:04;;;;;;;11.05;2.78;;;15.30;99.90;;;14.69;100.00;101165.31;4151174;28;20037;-74
2023/07/04 02:51:05;;;;;;;9.77;2.83;;;15.30;99.90;;;14.72;100.00;101172.09;4167385;28;20029;-75
2023/07/04 02:53:06;;;;;;;12.40;3.13;;;15.30;99.90;;;14.65;100.00;101156.00;4167396;28;20033;-75
2023/07/04 02:55:08;;;;;;;6.50;1.90;;;15.30;99.90;;;14.70;100.00;101174.06;4167361;28;20112;-74
2023/07/04 02:57:13;;;;;;;8.50;2.72;;;15.30;99.90;;;14.65;100.00;101163.97;4186254;28;20029;-75
2023/07/04 02:59:14;;;;;;;12.65;2.80;;;15.20;99.90;;;14.65;100.00;101153.34;4154426;28;20034;-74
2023/07/04 03:01:15;;;;;;;10.80;2.58;;;15.20;99.90;;;14.66;100.00;101154.19;4154268;28;20030;-74
2023/07/04 03:03:16;;;;;;;10.20;2.55;;;15.20;99.90;;;14.63;100.00;101151.88;4188216;28;20047;-75
2023/07/04 03:05:17;;;;;;;7.70;2.38;;;15.30;99.90;;;14.64;100.00;101149.03;4203713;28;20056;-75
2023/07/04 03:07:18;;;;;;;9.45;2.92;;;15.30;99.90;;;14.66;100.00;101159.50;4188037;28;20021;-74
2023/07/04 03:09:19;;;;;;;4.47;2.35;;;15.20;99.90;;;14.66;100.00;101159.50;4188011;28;20055;-74
2023/07/04 03:11:20;;;;;;;9.30;2.47;;;15.30;99.90;;;14.66;100.00;101163.00;4170280;28;20065;-75
2023/07/04 03:13:21;;;;;;;6.50;1.92;;;15.20;99.90;;;14.63;100.00;101147.41;4187832;28;20484;-75
2023/07/04 03:15:22;;;;;;;6.65;2.00;;;15.20;99.90;;;14.67;100.00;101154.00;4170360;28;20025;-75
2023/07/04 03:17:23;;;;;;;7.85;2.10;;;15.20;99.90;;;14.70;100.00;101156.31;4188144;28;20171;-75
2023/07/04 03:19:24;;;;;;;6.57;2.10;;;15.20;99.90;;;14.64;100.00;101142.91;4153954;28;20401;-74
2023/07/04 03:21:24;;;;;;;7.95;2.80;;;15.20;99.90;;;14.71;100.00;101150.00;4187932;28;20040;-75
2023/07/04 03:23:25;;;;;;;6.53;2.25;;;15.30;99.90;;;14.72;100.00;101148.19;4203231;28;20024;-74
2023/07/04 03:25:26;;;;;;;7.75;2.72;;;15.30;99.90;;;14.73;100.00;101149.81;4170442;28;20030;-75
2023/07/04 03:27:27;;;;;;;10.52;2.10;;;15.30;99.90;;;14.78;100.00;101144.84;4170177;28;20064;-74
2023/07/04 03:29:28;;;;;;;9.38;2.35;;;15.30;99.90;;;14.74;100.00;101133.72;4187649;28;20036;-74
2023/07/04 03:31:29;;;;;;;7.05;2.50;;;15.30;99.90;;;14.70;100.00;101119.13;4170113;28;20524;-74
2023/07/04 03:33:30;;;;;;;9.82;2.40;;;15.30;99.90;;;14.77;100.00;101129.91;4170326;28;20033;-75
2023/07/04 03:35:31;;;;;;;8.52;2.85;;;15.30;99.90;;;14.78;100.00;101123.59;4187811;28;20493;-74
2023/07/04 03:37:35;;;;;;;8.43;2.47;;;15.40;99.90;;;14.82;100.00;101127.53;4170218;28;20041;-74
2023/07/04 03:39:36;;;;;;;;;;;15.40;99.90;;;14.78;100.00;101127.06;4170464;28;20056;-74
2023/07/04 03:41:37;;;;;;;13.23;3.05;;;15.40;99.90;;;14.73;100.00;101115.31;4187668;28;19913;-75
2023/07/04 03:43:39;;;;;;;9.25;2.35;;;15.40;99.90;;;14.72;100.00;101125.13;4154401;28;20032;-74
2023/07/04 03:45:40;;;;;;;6.90;2.45;;;15.30;99.90;;;14.62;100.00;101115.69;4174791;28;20401;-75
2023/07/04 03:47:40;;;;;;;5.32;1.88;;;15.20;99.90;;;14.50;100.00;101125.03;4169901;28;20033;-75
2023/07/04 03:49:42;;;;;;;6.47;2.38;;;15.10;99.90;;;14.40;100.00;101123.41;4187790;28;20048;-74
2023/07/04 03:51:43;;;;;;;5.57;2.10;;;15.00;99.90;;;14.19;100.00;101112.50;4170102;28;20029;-74
2023/07/04 03:53:44;;;;;;;8.15;2.90;;;14.90;99.90;;;14.20;100.00;101127.44;4187442;28;20028;-74
2023/07/04 03:55:45;;;;;;;11.23;3.60;;;14.80;99.90;;;14.05;100.00;101121.16;4169736;28;20035;-75
2023/07/04 03:57:47;;;;;;;8.00;2.55;;;14.70;99.90;;;13.99;100.00;101121.84;4169406;28;20045;-74
2023/07/04 03:59:48;;;;;;;8.20;3.20;;;14.60;99.90;;;13.77;100.00;101098.66;4187236;28;20391;-74
2023/07/04 04:01:49;;;;;;;7.32;2.50;;;14.50;99.90;;;13.80;100.00;101107.13;4169211;28;20033;-74
2023/07/04 04:03:53;;;;;;;5.60;2.55;;;14.40;99.90;;;13.77;100.00;101111.91;4187289;28;20098;-74
2023/07/04 04:05:54;;;;;;;9.82;3.00;;;14.40;99.90;;;13.77;100.00;101109.25;4202276;28;20021;-75
2023/07/04 04:07:55;;;;;;;4.97;2.33;;;14.40;99.90;;;13.73;100.00;101100.00;4187314;28;20036;-74
2023/07/04 04:09:56;;;;;;;11.38;3.70;;;14.40;99.90;;;13.72;100.00;101107.13;4169568;28;20040;-74
2023/07/04 04:11:57;;;;;;;8.90;2.47;;;14.30;99.90;;;13.75;100.00;101098.00;4169549;28;20025;-74
2023/07/04 04:13:58;;;;;;;6.00;2.15;;;14.30;99.90;;;13.74;100.00;101102.47;4186871;28;20079;-75
2023/07/04 04:15:59;;;;;;;8.77;2.83;;;14.30;99.90;;;13.70;100.00;101089.75;4169465;28;20060;-74
2023/07/04 04:17:59;;;;;;;5.85;2.35;;;14.30;99.90;;;13.63;100.00;101083.44;4169481;28;20428;-74
2023/07/04 04:20:04;;;;;;;9.07;2.42;;;14.30;99.90;;;13.74;100.00;101093.69;4187006;28;20064;-74
2023/07/04 04:22:05;;;;;;;9.10;2.78;;;14.30;99.90;;;13.64;100.00;101074.50;4186965;28;20028;-74
2023/07/04 04:24:06;;;;;;;5.93;2.97;;;14.30;99.90;;;13.69;100.00;101088.06;4187157;28;20104;-74
2023/07/04 04:26:07;;;;;;;8.45;2.80;;;14.40;99.90;;;13.77;100.00;101103.97;4185854;28;20043;-75
2023/07/04 04:28:09;;;;;;;6.90;2.13;;;14.40;99.90;;;13.78;100.00;101095.03;4186713;28;20373;-74
2023/07/04 04:30:11;;;;;;;7.45;2.75;;;14.40;99.90;;;13.90;100.00;101106.94;4168933;28;20053;-75
2023/07/04 04:32:11;;;;;;;5.22;2.00;;;14.40;99.90;;;13.91;100.00;101098.00;4186949;28;20115;-75
2023/07/04 04:34:16;;;;;;;8.68;2.95;;;14.50;99.90;;;13.97;100.00;101097.31;4185781;28;20036;-74
2023/07/04 04:36:17;;;;;;;8.40;2.53;;;14.60;99.90;;;14.11;100.00;101103.75;4186914;28;20052;-74
2023/07/04 04:38:18;;;;;;;7.20;2.72;;;14.60;99.90;;;14.24;100.00;101104.88;4169101;28;20025;-74
2023/07/04 04:40:19;;;;;;;6.95;3.03;;;14.70;99.90;;;14.28;100.00;101094.72;4186823;28;20036;-75
2023/07/04 04:42:23;;;;;;;7.75;2.38;;;14.80;99.90;;;14.43;100.00;101106.31;4185324;28;20029;-74
2023/07/04 04:44:25;;;;;;;13.55;3.00;;;14.90;99.90;;;14.50;100.00;101111.78;4169220;28;20030;-75
2023/07/04 04:46:26;;;;;;;7.45;3.05;;;15.00;99.90;;;14.53;100.00;101104.28;4186501;28;20021;-74
2023/07/04 04:48:29;;;;;;;5.22;2.53;;;15.10;99.90;;;14.63;100.00;101107.56;4185766;28;20048;-75
2023/07/04 04:50:30;;;;;;;9.68;2.47;;;15.10;99.90;;;14.70;100.00;101115.66;4186497;28;20048;-74
2023/07/04 04:52:32;;;;;;;6.90;2.78;;;15.20;99.90;;;14.77;100.00;101117.47;4186640;28;20025;-74
2023/07/04 04:54:33;;;;;;;8.15;2.42;;;15.30;99.90;;;14.74;100.00;101098.38;4186467;28;20047;-74
2023/07/04 04:56:34;;;;;;;6.85;1.65;;;15.30;99.90;;;14.82;100.00;101103.63;4186684;28;20392;-74
2023/07/04 04:58:36;;;;;;;3.67;1.85;;;15.30;99.90;;;14.90;100.00;101112.38;4186217;28;20040;-74
2023/07/04 05:00:37;;;;;;;5.75;2.42;;;15.40;99.90;;;14.94;100.00;101097.75;4186427;28;20066;-74
2023/07/04 05:02:37;;;;;;;11.88;2.95;;;15.40;99.90;;;14.92;100.00;101098.94;4186257;28;20421;-74
2023/07/04 05:04:38;;;;;;;7.55;2.30;;;15.50;99.90;;;14.99;100.00;101097.25;4185559;28;20047;-74
2023/07/04 05:06:39;;;;;;;6.88;2.20;;;15.50;99.90;;;15.08;100.00;101093.53;4185301;28;20021;-75
2023/07/04 05:08:40;;;;;;;7.90;2.60;;;15.60;99.90;;;15.08;100.00;101082.06;4168967;28;20477;-75
2023/07/04 05:10:41;;;;;;;10.88;3.53;;;15.60;99.90;;;15.18;100.00;101088.78;4168952;28;20018;-74
2023/07/04 05:12:42;;;;;;;7.50;2.58;;;15.70;99.90;;;15.25;100.00;101094.22;4168599;28;20029;-74
2023/07/04 05:14:42;;;;;;;12.73;2.90;;;15.80;99.90;;;15.18;100.00;101078.16;4168244;28;20199;-74
2023/07/04 05:16:43;;;;;;;7.18;2.30;;;15.80;99.90;;;15.29;100.00;101091.03;4186167;28;20036;-74
2023/07/04 05:18:45;;;;;;;7.82;2.80;;;15.80;99.90;;;15.31;100.00;101086.38;4185538;28;20032;-74
2023/07/04 05:20:46;;;;;;;6.80;3.00;;;15.90;99.90;;;15.33;100.00;101091.50;4185956;28;20153;-75
2023/07/04 05:22:47;;;;;;;6.40;2.30;;;15.90;99.90;;;15.27;100.00;101087.72;4185898;28;20598;-75
2023/07/04 05:24:48;;;;;;;11.13;2.92;;;15.90;99.90;;;15.31;100.00;101088.22;4168317;28;20036;-74
2023/07/04 05:26:49;;;;;;;11.05;2.90;;;15.90;99.90;;;15.33;100.00;101091.50;4185965;28;20100;-74
2023/07/04 05:28:52;;;;;;;9.65;2.80;;;15.90;99.90;;;15.35;100.00;101092.97;4168479;28;20025;-74
2023/07/04 05:31:03;;;;;;;10.90;2.90;;;15.90;99.90;;;15.33;100.00;101086.19;4186018;28;20025;-74
2023/07/04 05:33:04;;;;;;;5.43;2.50;;;15.90;99.90;;;15.31;100.00;101083.72;4178341;28;20040;-75
2023/07/04 05:35:06;;;;;;;6.70;3.00;;;15.90;99.90;;;15.31;100.00;101083.72;4185872;28;20017;-75
2023/07/04 05:37:07;;;;;;;6.65;3.45;;;15.90;99.90;;;15.27;100.00;101082.41;4184737;28;20025;-75
2023/07/04 05:39:09;;;;;;;7.82;3.47;;;15.90;99.90;;;15.28;100.00;101089.41;4168243;28;20025;-75
2023/07/04 05:41:16;;;;;;;8.55;3.25;;;15.90;99.90;;;15.30;100.00;101090.03;4185818;28;20047;-75
2023/07/04 05:43:17;;;;;;;8.00;2.80;;;15.80;99.90;;;15.27;100.00;101089.56;4185574;28;20025;-75
2023/07/04 05:45:17;;;;;;;6.30;2.50;;;15.80;99.90;;;15.24;100.00;101085.44;4185832;28;20025;-75
2023/07/04 05:47:18;;;;;;;7.45;2.55;;;15.80;99.90;;;15.22;100.00;101089.28;4168233;28;20128;-75
2023/07/04 05:49:19;;;;;;;6.22;2.55;;;15.80;99.90;;;15.18;100.00;101082.66;4184342;28;20500;-75
2023/07/04 05:51:21;;;;;;;6.05;2.53;;;15.80;99.90;;;15.15;100.00;101083.84;4185567;28;20033;-75
2023/07/04 05:53:30;;;;;;;7.53;2.65;;;15.80;99.90;;;15.27;100.00;101090.38;4167999;28;20116;-75
2023/07/04 05:55:31;;;;;;;9.00;2.65;;;15.80;99.90;;;15.30;100.00;101092.69;4185609;28;20029;-75
2023/07/04 05:57:32;;;;;;;8.18;3.35;;;15.90;99.90;;;15.36;100.00;101086.66;4167622;28;20021;-75
2023/07/04 05:59:33;;;;;;;13.35;3.15;;;15.90;99.90;;;15.44;100.00;101083.94;4167760;28;20324;-75
2023/07/04 06:01:45;;;;;;;8.95;2.88;;;16.00;99.90;;;15.52;100.00;101071.63;4185541;28;20025;-75
2023/07/04 06:03:47;;;;;;;6.57;2.22;;;16.10;99.90;;;15.56;100.00;101064.94;4167771;28;20109;-75
2023/07/04 06:05:47;;;;;;;5.57;2.13;;;16.10;99.90;;;15.52;100.00;101053.84;4184071;28;20041;-75
2023/07/04 06:07:48;;;;;;;8.75;2.53;;;16.20;99.90;;;15.56;100.00;101059.63;4185565;28;20099;-75
2023/07/04 06:09:49;;;;;;;5.30;2.47;;;16.20;99.90;;;15.60;100.00;101061.72;4167843;28;20020;-75
2023/07/04 06:11:50;;;;;;;8.15;2.70;;;16.20;99.90;;;15.62;100.00;101069.53;4185444;28;20052;-75
2023/07/04 06:13:51;;;;;;;6.22;2.75;;;16.20;99.90;;;15.59;100.00;101059.25;4185033;28;20104;-75
2023/07/04 06:15:52;;;;;;;6.30;2.92;;;16.20;99.90;;;15.56;100.00;101047.13;4185430;28;20029;-76
2023/07/04 06:17:53;;;;;;;5.85;2.38;;;16.20;99.90;;;15.62;100.00;101058.91;4167710;28;20395;-75
2023/07/04 06:19:54;;;;;;;7.65;3.40;;;16.10;99.90;;;15.53;100.00;101046.69;4185246;28;20076;-75
2023/07/04 06:21:55;;;;;;;8.02;2.97;;;16.20;99.90;;;15.56;100.00;101043.66;4150865;28;20083;-75
2023/07/04 06:23:58;;;;;;;6.90;2.75;;;16.20;99.90;;;15.59;100.00;101045.97;4167695;28;20066;-75
2023/07/04 06:25:59;;;;;;;8.88;2.88;;;16.10;99.90;;;15.59;100.00;101051.28;4167647;28;20040;-75
2023/07/04 06:28:01;;;;;;;8.00;2.92;;;16.10;99.90;;;15.51;100.00;101057.50;4167192;28;20021;-75
2023/07/04 06:30:03;;;;;;;8.95;2.72;;;16.10;99.90;;;15.49;100.00;101047.06;4167011;28;20018;-75
2023/07/04 06:32:05;;;;;;;7.18;2.53;;;16.10;99.90;;;15.59;100.00;101046.75;4167182;28;20033;-75
2023/07/04 06:34:07;;;;;;;6.53;2.72;;;16.20;99.90;;;15.66;100.00;101028.25;4167540;28;20106;-75
2023/07/04 06:36:10;;;;;;;9.30;3.08;;;16.20;99.90;;;15.79;100.00;101034.63;4167969;28;20433;-75
2023/07/04 06:38:11;;;;;;;5.55;2.60;;;16.30;99.90;;;15.84;100.00;101031.38;4167544;28;20063;-75
2023/07/04 06:40:13;;;;;;;9.80;2.92;;;16.40;99.90;;;15.84;100.00;101032.22;4150988;28;20128;-74
2023/07/04 06:42:13;;;;;;;8.43;3.72;;;16.40;99.90;;;15.81;100.00;101043.22;4150767;28;20034;-75
2023/07/04 06:44:14;;;;;;;6.25;2.50;;;16.40;99.90;;;15.76;100.00;101050.94;4184850;28;20025;-75
2023/07/04 06:46:20;;;;;;;9.68;3.22;;;16.30;99.90;;;15.69;100.00;101057.97;4167137;28;20021;-75
2023/07/04 06:48:25;;;;;;;9.88;3.28;;;16.20;99.90;;;15.60;100.00;101060.91;4184043;28;20040;-75
2023/07/04 06:50:28;;;;;;;7.63;2.70;;;16.20;99.90;;;15.59;100.00;101069.91;4185021;28;20087;-74
2023/07/04 06:52:30;;;;;;;10.52;3.53;;;16.10;99.90;;;15.56;100.00;101060.41;4167292;28;20018;-75
2023/07/04 06:54:30;;;;;;;4.93;2.38;;;16.10;99.90;;;15.62;100.00;101062.38;4184828;28;20095;-75
2023/07/04 06:56:31;;;;;;;8.43;2.45;;;16.10;99.90;;;15.61;100.00;101049.25;4185063;28;20029;-75
2023/07/04 06:58:34;;;;;;;9.35;3.83;;;16.20;99.90;;;15.70;100.00;101046.34;4166908;28;20025;-75
2023/07/04 07:00:35;;;;;;;5.68;2.33;;;16.20;99.90;;;15.66;100.00;101046.88;4167268;28;20037;-75
2023/07/04 07:02:36;;;;;;;3.92;1.90;;;16.20;99.90;;;15.69;100.00;101042.03;4184697;28;20546;-74
2023/07/04 07:04:37;;;;;;;7.95;2.55;;;16.20;99.90;;;15.64;100.00;101036.44;4185009;28;20025;-75
2023/07/04 07:06:39;;;;;;;6.57;2.70;;;16.20;99.90;;;15.58;100.00;101041.66;4184959;28;20033;-75
2023/07/04 07:08:41;;;;;;;8.95;2.58;;;16.10;99.90;;;15.49;100.00;101040.91;4151080;28;20017;-75
2023/07/04 07:11:03;;;;;;;13.65;3.90;;;16.10;99.90;;;15.49;100.00;101059.50;4184817;28;20032;-75
2023/07/04 07:13:04;;;;;;;7.85;2.90;;;16.10;99.90;;;15.46;100.00;101057.19;4184651;28;20042;-75
2023/07/04 07:15:06;;;;;;;7.20;2.38;;;16.00;99.90;;;15.44;100.00;101049.38;4184956;28;20021;-75
2023/07/04 07:17:07;;;;;;;7.43;3.03;;;16.00;99.90;;;15.46;100.00;101055.34;4167147;28;20037;-75
2023/07/04 07:19:08;;;;;;;11.63;3.03;;;16.00;99.90;;;15.43;100.00;101046.91;4184802;28;20392;-75
2023/07/04 07:21:13;;;;;;;5.95;2.40;;;16.00;99.90;;;15.45;100.00;101045.72;4167075;28;20037;-75
2023/07/04 07:23:14;;;;;;;10.93;3.60;;;16.00;99.90;;;15.42;100.00;101038.09;4178692;28;20051;-75
2023/07/04 07:25:15;;;;;;;6.68;2.50;;;16.00;99.90;;;15.40;100.00;101028.66;4184655;28;20388;-76
2023/07/04 07:27:16;;;;;;;8.88;2.40;;;15.90;99.90;;;15.26;100.00;101011.66;4183886;28;20025;-75
2023/07/04 07:29:17;;;;;;;10.75;3.47;;;15.90;99.90;;;15.35;100.00;101015.88;4184535;28;20543;-75
2023/07/04 07:31:25;;;;;;;6.80;2.15;;;15.90;99.90;;;15.22;100.00;100991.78;4184685;28;20044;-75
2023/07/04 07:33:26;;;;;;;5.63;2.28;;;15.90;99.90;;;15.34;100.00;100993.00;4184771;28;20021;-74
2023/07/04 07:35:30;;;;;;;6.80;3.17;;;15.90;99.90;;;15.42;100.00;101002.72;4184839;28;20040;-74
2023/07/04 07:37:31;;;;;;;4.90;2.50;;;15.90;99.90;;;15.37;100.00;100995.28;4167073;28;20022;-75
2023/07/04 07:39:32;;;;;;;10.32;3.33;;;15.90;99.90;;;15.45;100.00;100989.06;4150708;28;20042;-75
2023/07/04 07:41:43;;;;;;;7.75;3.38;;;16.00;99.90;;;15.44;100.00;100985.56;4184481;28;20033;-75
2023/07/04 07:43:44;;;;;;;8.65;3.33;;;16.00;99.90;;;15.60;100.00;101002.38;4170333;28;20033;-75
2023/07/04 07:45:48;;;;;;;9.20;3.88;;;16.10;99.90;;;15.73;100.00;100991.97;4169833;28;20097;-75
2023/07/04 07:47:49;;;;;;;10.52;3.92;;;16.20;99.90;;;15.85;100.00;100980.69;4169984;28;20030;-75
2023/07/04 07:49:50;;;;;;;8.80;3.80;;;16.30;99.90;;;16.11;100.00;100985.50;4187758;28;20052;-74
2023/07/04 07:51:51;;;;;;;6.00;2.65;;;16.50;99.90;;;16.28;100.00;100980.78;4187798;28;20033;-74
2023/07/04 07:53:54;;;;;;;10.30;3.10;;;16.70;99.90;;;16.38;100.00;100981.31;4169762;28;20079;-75
2023/07/04 07:55:55;;;;;;;7.70;3.00;;;16.80;99.90;;;16.55;100.00;100985.41;4187364;28;20024;-74
2023/07/04 07:57:56;;;;;;;8.30;3.17;;;16.90;99.90;;;16.59;100.00;100958.25;4169708;28;20033;-75
2023/07/04 07:59:57;;;;;;;7.80;2.83;;;17.10;99.90;;;16.76;100.00;100979.28;4187469;28;20037;-75
2023/07/04 08:01:58;;;;;;;8.05;4.65;;;17.20;99.90;;;16.75;100.00;100977.66;4187451;28;20092;-75
2023/07/04 08:04:01;;;;;;;9.32;4.13;;;17.20;99.90;;;16.71;100.00;100985.19;4187235;28;20033;-75
2023/07/04 08:06:02;;;;;;;10.63;4.38;;;17.20;99.90;;;16.70;100.00;100966.72;4170016;28;20022;-75
2023/07/04 08:08:03;;;;;;;9.13;4.18;;;17.20;99.90;;;16.69;100.00;100957.94;4192838;28;20401;-75
2023/07/04 08:10:04;;;;;;;7.93;3.55;;;17.20;99.90;;;16.73;100.00;100958.34;4187260;28;20561;-75
2023/07/04 08:12:05;;;;;;;9.38;3.90;;;17.20;99.90;;;16.67;100.00;100953.78;4169659;28;20034;-74
2023/07/04 08:14:07;;;;;;;9.80;4.03;;;17.20;99.90;;;16.68;100.00;100955.44;4186790;28;20028;-75
2023/07/04 08:16:07;;;;;;;9.13;3.78;;;17.30;99.90;;;16.75;100.00;100970.50;4169543;28;20033;-75
2023/07/04 08:18:10;;;;;;;11.20;4.40;;;17.30;99.90;;;16.77;100.00;100967.63;4169443;28;20416;-75
2023/07/04 08:20:11;;;;;;;7.03;3.72;;;17.30;99.90;;;16.72;100.00;100970.88;4187021;28;20088;-75
2023/07/04 08:22:12;;;;;;;9.35;3.97;;;17.30;99.90;;;16.80;100.00;100972.56;4154950;28;20045;-75